createdAt,value
2017-11-04T00:00:38.083Z,22.60
2017-11-04T00:03:12.287Z,23.03
2017-11-04T00:05:46.507Z,26.43
2017-11-04T00:08:20.715Z,24.60
2017-11-04T00:10:54.253Z,25.00
2017-11-04T00:13:27.962Z,28.67
2017-11-04T00:16:02.245Z,23.60
2017-11-04T00:18:36.458Z,23.17
2017-11-04T00:21:10.681Z,22.67
2017-11-04T00:23:44.894Z,24.20
2017-11-04T00:26:18.423Z,27.37
2017-11-04T00:28:51.954Z,33.13
2017-11-04T00:31:25.606Z,31.80
2017-11-04T00:33:59.162Z,35.13
2017-11-04T00:36:32.611Z,29.53
2017-11-04T00:39:06.174Z,24.80
2017-11-04T00:41:39.620Z,30.13
2017-11-04T00:44:13.151Z,26.83
2017-11-04T00:46:46.742Z,25.97
2017-11-04T00:49:20.190Z,29.23
2017-11-04T00:51:53.654Z,31.63
2017-11-04T00:54:28.011Z,30.60
2017-11-04T00:57:02.231Z,29.00
2017-11-04T00:59:35.674Z,35.20
2017-11-04T01:02:09.319Z,32.13
2017-11-04T01:04:42.997Z,29.27
2017-11-04T01:07:17.447Z,27.83
2017-11-04T01:09:51.649Z,28.43
2017-11-04T01:12:25.187Z,29.27
2017-11-04T01:14:58.743Z,26.67
2017-11-04T01:17:32.191Z,31.40
2017-11-04T01:20:05.726Z,29.30
2017-11-04T01:22:39.370Z,33.60
2017-11-04T01:25:12.934Z,27.67
2017-11-04T01:27:46.379Z,27.10
2017-11-04T01:30:19.939Z,29.13
2017-11-04T01:32:53.462Z,28.40
2017-11-04T01:35:26.977Z,39.77
2017-11-04T01:38:01.258Z,39.33
2017-11-04T01:40:34.792Z,35.90
2017-11-04T01:43:08.318Z,47.40
2017-11-04T01:45:41.846Z,51.03
2017-11-04T01:48:14.882Z,34.07
2017-11-04T01:50:48.376Z,38.77
2017-11-04T01:53:21.568Z,34.93
2017-11-04T01:55:55.254Z,29.87
2017-11-04T01:58:28.872Z,36.33
2017-11-04T02:01:03.292Z,36.73
2017-11-04T02:03:36.783Z,33.93
2017-11-04T02:06:10.289Z,35.57
2017-11-04T02:08:43.949Z,35.03
2017-11-04T02:11:20.463Z,39.37
2017-11-04T02:13:54.154Z,39.60
2017-11-04T02:16:27.754Z,34.90
2017-11-04T02:19:01.378Z,35.70
2017-11-04T02:21:35.764Z,30.20
2017-11-04T02:24:09.379Z,36.13
2017-11-04T02:26:42.970Z,33.43
2017-11-04T02:29:17.263Z,34.43
2017-11-04T02:31:51.008Z,34.03
2017-11-04T02:34:24.563Z,38.50
2017-11-04T02:36:59.123Z,40.53
2017-11-04T02:39:32.722Z,33.13
2017-11-04T02:42:06.222Z,35.67
2017-11-04T02:44:39.823Z,35.37
2017-11-04T02:47:13.422Z,36.80
2017-11-04T02:49:47.081Z,35.83
2017-11-04T02:52:20.623Z,39.10
2017-11-04T02:54:54.319Z,32.30
2017-11-04T02:57:28.633Z,37.03
2017-11-04T03:00:02.247Z,32.43
2017-11-04T03:02:35.819Z,33.13
2017-11-04T03:05:09.661Z,40.17
2017-11-04T03:07:43.135Z,29.63
2017-11-04T03:10:16.766Z,34.93
2017-11-04T03:12:50.457Z,38.60
2017-11-04T03:15:24.158Z,32.23
2017-11-04T03:17:57.766Z,34.60
2017-11-04T03:20:31.435Z,37.00
2017-11-04T03:23:05.023Z,32.90
2017-11-04T03:25:38.706Z,39.87
2017-11-04T03:28:12.272Z,38.20
2017-11-04T03:30:46.396Z,31.80
2017-11-04T03:33:20.066Z,40.20
2017-11-04T03:35:53.647Z,32.70
2017-11-04T03:38:27.095Z,35.13
2017-11-04T03:41:00.788Z,32.67
2017-11-04T03:43:34.283Z,35.80
2017-11-04T03:46:07.882Z,33.17
2017-11-04T03:48:42.166Z,35.00
2017-11-04T03:51:15.848Z,34.57
2017-11-04T03:53:50.219Z,34.40
2017-11-04T03:56:23.929Z,32.17
2017-11-04T03:58:58.822Z,36.57
2017-11-04T04:01:32.454Z,32.00
2017-11-04T04:04:06.165Z,31.53
2017-11-04T04:06:39.763Z,32.10
2017-11-04T04:09:13.359Z,37.60
2017-11-04T04:11:46.958Z,38.33
2017-11-04T04:14:20.411Z,36.27
2017-11-04T04:16:54.750Z,40.73
2017-11-04T04:19:28.353Z,36.73
2017-11-04T04:22:02.713Z,34.60
2017-11-04T04:24:36.250Z,35.87
2017-11-04T04:27:10.492Z,36.00
2017-11-04T04:29:44.699Z,33.87
2017-11-04T04:32:18.283Z,37.20
2017-11-04T04:34:52.041Z,34.97
2017-11-04T04:37:25.686Z,37.27
2017-11-04T04:39:59.452Z,39.00
2017-11-04T04:42:33.102Z,32.77
2017-11-04T04:45:06.851Z,36.40
2017-11-04T04:47:41.343Z,35.67
2017-11-04T04:50:15.038Z,38.57
2017-11-04T04:52:48.639Z,39.27
2017-11-04T04:55:23.191Z,35.00
2017-11-04T04:57:56.999Z,33.43
2017-11-04T05:00:31.123Z,36.20
2017-11-04T05:03:06.356Z,34.77
2017-11-04T05:05:39.802Z,37.10
2017-11-04T05:08:13.327Z,38.70
2017-11-04T05:10:46.949Z,32.73
2017-11-04T05:13:20.651Z,39.20
2017-11-04T05:15:55.049Z,36.93
2017-11-04T05:18:28.768Z,37.93
2017-11-04T05:21:02.426Z,30.97
2017-11-04T05:23:35.946Z,35.40
2017-11-04T05:26:10.171Z,38.93
2017-11-04T05:28:43.882Z,36.60
2017-11-04T05:31:17.494Z,35.73
2017-11-04T05:33:51.086Z,36.40
2017-11-04T05:36:25.517Z,34.80
2017-11-04T05:38:59.122Z,43.73
2017-11-04T05:41:32.825Z,33.73
2017-11-04T05:44:06.420Z,38.63
2017-11-04T05:46:40.743Z,40.40
2017-11-04T05:49:14.482Z,36.57
2017-11-04T05:51:49.370Z,33.47
2017-11-04T05:54:22.980Z,36.53
2017-11-04T05:56:57.290Z,43.37
2017-11-04T05:59:30.871Z,33.50
2017-11-04T06:02:04.462Z,36.43
2017-11-04T06:04:38.051Z,34.10
2017-11-04T06:07:11.497Z,37.43
2017-11-04T06:09:45.191Z,34.67
2017-11-04T06:12:18.750Z,38.27
2017-11-04T06:14:52.394Z,33.83
2017-11-04T06:17:25.999Z,41.13
2017-11-04T06:19:59.499Z,43.23
2017-11-04T06:22:33.302Z,36.97
2017-11-04T06:25:06.804Z,44.83
2017-11-04T06:27:40.303Z,40.57
2017-11-04T06:30:13.942Z,37.17
2017-11-04T06:32:47.736Z,35.90
2017-11-04T06:35:21.314Z,37.30
2017-11-04T06:37:55.115Z,42.83
2017-11-04T06:40:28.809Z,43.13
2017-11-04T06:43:02.515Z,31.97
2017-11-04T06:45:36.110Z,41.33
2017-11-04T06:48:09.822Z,32.17
2017-11-04T06:50:44.244Z,38.73
2017-11-04T06:53:17.743Z,36.93
2017-11-04T06:55:51.295Z,38.93
2017-11-04T06:58:25.048Z,34.53
2017-11-04T07:00:59.302Z,38.47
2017-11-04T07:03:32.923Z,34.67
2017-11-04T07:06:06.562Z,37.80
2017-11-04T07:08:40.051Z,38.57
2017-11-04T07:11:13.614Z,37.30
2017-11-04T07:13:47.055Z,36.90
2017-11-04T07:16:21.379Z,39.00
2017-11-04T07:18:55.590Z,39.57
2017-11-04T07:21:29.394Z,37.03
2017-11-04T07:24:03.891Z,40.27
2017-11-04T07:26:37.729Z,36.20
2017-11-04T07:29:11.278Z,39.20
2017-11-04T07:31:45.033Z,36.37
2017-11-04T07:34:18.514Z,42.20
2017-11-04T07:36:52.078Z,38.47
2017-11-04T07:39:26.635Z,35.90
2017-11-04T07:42:00.231Z,35.50
2017-11-04T07:44:33.867Z,35.47
2017-11-04T07:47:07.442Z,35.37
2017-11-04T07:49:41.103Z,32.97
2017-11-04T07:52:14.623Z,36.23
2017-11-04T07:54:48.847Z,38.53
2017-11-04T07:57:22.555Z,35.50
2017-11-04T07:59:57.035Z,41.17
2017-11-04T08:02:30.890Z,43.20
2017-11-04T08:05:04.475Z,43.73
2017-11-04T08:07:38.074Z,38.43
2017-11-04T08:10:11.655Z,36.73
2017-11-04T08:12:45.203Z,46.83
2017-11-04T08:15:19.711Z,40.53
2017-11-04T08:17:54.130Z,38.13
2017-11-04T08:20:27.843Z,41.13
2017-11-04T08:23:01.343Z,34.77
2017-11-04T08:25:35.046Z,40.10
2017-11-04T08:28:08.526Z,44.37
2017-11-04T08:30:45.090Z,47.00
2017-11-04T08:33:18.922Z,43.00
2017-11-04T08:35:53.338Z,45.63
2017-11-04T08:38:27.460Z,37.97
2017-11-04T08:41:01.171Z,35.93
2017-11-04T08:43:34.747Z,43.93
2017-11-04T08:46:08.403Z,41.73
2017-11-04T08:48:42.023Z,36.97
2017-11-04T08:51:15.614Z,39.20
2017-11-04T08:53:49.231Z,37.00
2017-11-04T08:56:23.122Z,40.07
2017-11-04T08:58:56.647Z,49.23
2017-11-04T09:01:30.222Z,47.20
2017-11-04T09:04:03.974Z,38.13
2017-11-04T09:06:38.463Z,44.20
2017-11-04T09:09:12.179Z,47.00
2017-11-04T09:11:46.010Z,41.23
2017-11-04T09:14:19.592Z,43.57
2017-11-04T09:16:53.199Z,42.53
2017-11-04T09:19:27.736Z,41.30
2017-11-04T09:22:02.032Z,53.03
2017-11-04T09:24:36.362Z,50.97
2017-11-04T09:27:10.275Z,53.00
2017-11-04T09:29:44.084Z,57.90
2017-11-04T09:32:17.742Z,52.37
2017-11-04T09:34:51.362Z,55.60
2017-11-04T09:37:24.988Z,51.33
2017-11-04T09:39:58.446Z,54.47
2017-11-04T09:42:33.017Z,45.33
2017-11-04T09:45:06.679Z,45.10
2017-11-04T09:47:41.107Z,50.00
2017-11-04T09:50:14.582Z,46.83
2017-11-04T09:52:48.166Z,46.00
2017-11-04T09:55:21.615Z,53.47
2017-11-04T09:57:55.379Z,52.83
2017-11-04T10:00:29.075Z,55.00
2017-11-04T10:03:03.459Z,53.17
2017-11-04T10:05:36.902Z,51.13
2017-11-04T10:08:11.326Z,59.00
2017-11-04T10:10:44.862Z,56.50
2017-11-04T10:13:19.264Z,51.33
2017-11-04T10:15:52.762Z,61.33
2017-11-04T10:18:26.971Z,52.43
2017-11-04T10:21:00.462Z,58.73
2017-11-04T10:23:33.934Z,49.30
2017-11-04T10:26:07.400Z,66.70
2017-11-04T10:28:40.870Z,65.50
2017-11-04T10:31:15.200Z,55.80
2017-11-04T10:33:49.002Z,56.13
2017-11-04T10:36:23.387Z,49.50
2017-11-04T10:38:57.551Z,56.97
2017-11-04T10:41:31.155Z,58.30
2017-11-04T10:44:04.643Z,62.13
2017-11-04T10:46:38.243Z,53.00
2017-11-04T10:49:12.043Z,53.13
2017-11-04T10:51:45.658Z,62.47
2017-11-04T10:54:19.251Z,63.00
2017-11-04T10:56:52.831Z,59.00
2017-11-04T10:59:26.563Z,60.23
2017-11-04T11:02:00.159Z,60.73
2017-11-04T11:04:33.758Z,56.83
2017-11-04T11:07:07.695Z,58.17
2017-11-04T11:09:42.087Z,57.83
2017-11-04T11:12:15.705Z,57.57
2017-11-04T11:14:49.398Z,56.00
2017-11-04T11:17:23.091Z,56.00
2017-11-04T11:19:56.603Z,54.47
2017-11-04T11:22:30.187Z,52.87
2017-11-04T11:25:03.742Z,50.60
2017-11-04T11:27:37.466Z,48.40
2017-11-04T11:30:11.307Z,51.43
2017-11-04T11:32:45.107Z,57.33
2017-11-04T11:35:18.686Z,52.63
2017-11-04T11:37:53.034Z,47.77
2017-11-04T11:40:26.939Z,54.20
2017-11-04T11:43:00.507Z,53.33
2017-11-04T11:45:34.450Z,52.63
2017-11-04T11:48:08.355Z,51.10
2017-11-04T11:50:41.902Z,53.30
2017-11-04T11:53:16.166Z,50.93
2017-11-04T11:55:49.838Z,53.27
2017-11-04T11:58:23.469Z,56.83
2017-11-04T12:00:57.019Z,48.43
2017-11-04T12:03:30.776Z,49.10
2017-11-04T12:06:05.254Z,56.83
2017-11-04T12:08:38.999Z,44.70
2017-11-04T12:11:12.559Z,51.37
2017-11-04T12:13:46.198Z,60.13
2017-11-04T12:16:19.911Z,46.43
2017-11-04T12:18:53.409Z,55.03
2017-11-04T12:21:27.202Z,55.13
2017-11-04T12:24:01.338Z,56.90
2017-11-04T12:26:34.920Z,49.33
2017-11-04T12:29:08.428Z,63.87
2017-11-04T12:31:42.235Z,54.00
2017-11-04T12:34:15.687Z,50.90
2017-11-04T12:36:50.253Z,50.33
2017-11-04T12:39:23.751Z,54.93
2017-11-04T12:41:58.171Z,51.97
2017-11-04T12:44:31.851Z,56.03
2017-11-04T12:47:05.535Z,55.17
2017-11-04T12:49:39.783Z,52.23
2017-11-04T12:52:13.510Z,58.10
2017-11-04T12:54:47.058Z,52.77
2017-11-04T12:57:20.855Z,45.60
2017-11-04T12:59:55.424Z,44.07
2017-11-04T13:02:28.982Z,41.27
2017-11-04T13:05:02.619Z,44.30
2017-11-04T13:07:36.296Z,57.27
2017-11-04T13:10:09.902Z,41.67
2017-11-04T13:12:43.491Z,43.63
2017-11-04T13:15:17.852Z,44.50
2017-11-04T13:17:51.346Z,40.60
2017-11-04T13:20:24.957Z,43.80
2017-11-04T13:22:59.060Z,39.53
2017-11-04T13:25:33.173Z,36.07
2017-11-04T13:28:07.491Z,43.30
2017-11-04T13:30:41.297Z,39.20
2017-11-04T13:33:14.999Z,42.83
2017-11-04T13:35:48.799Z,41.80
2017-11-04T13:38:22.404Z,36.80
2017-11-04T13:40:56.511Z,37.27
2017-11-04T13:43:30.183Z,38.00
2017-11-04T13:46:03.720Z,37.57
2017-11-04T13:48:37.525Z,35.43
2017-11-04T13:51:12.038Z,42.20
2017-11-04T13:53:45.849Z,44.73
2017-11-04T13:56:20.743Z,36.60
2017-11-04T13:58:54.358Z,43.83
2017-11-04T14:01:28.285Z,36.67
2017-11-04T14:04:01.886Z,43.57
2017-11-04T14:06:35.404Z,45.53
2017-11-04T14:09:09.107Z,44.50
2017-11-04T14:11:42.658Z,49.20
2017-11-04T14:14:16.291Z,44.83
2017-11-04T14:16:49.791Z,39.97
2017-11-04T14:19:23.594Z,41.57
2017-11-04T14:21:57.200Z,35.13
2017-11-04T14:24:30.775Z,42.90
2017-11-04T14:27:04.378Z,39.63
2017-11-04T14:29:37.962Z,34.20
2017-11-04T14:32:11.462Z,36.53
2017-11-04T14:34:45.214Z,38.07
2017-11-04T14:37:18.871Z,38.13
2017-11-04T14:39:53.923Z,40.17
2017-11-04T14:42:27.648Z,33.53
2017-11-04T14:45:01.139Z,45.50
2017-11-04T14:47:34.751Z,38.63
2017-11-04T14:50:08.306Z,45.20
2017-11-04T14:52:41.895Z,35.07
2017-11-04T14:55:15.643Z,43.83
2017-11-04T14:57:49.943Z,36.17
2017-11-04T15:00:23.680Z,34.77
2017-11-04T15:02:57.226Z,34.87
2017-11-04T15:05:30.722Z,41.80
2017-11-04T15:08:05.082Z,40.20
2017-11-04T15:10:38.896Z,35.70
2017-11-04T15:13:12.495Z,39.73
2017-11-04T15:15:46.294Z,41.00
2017-11-04T15:18:19.974Z,42.63
2017-11-04T15:20:53.598Z,40.20
2017-11-04T15:23:27.914Z,36.30
2017-11-04T15:26:01.422Z,39.87
2017-11-04T15:28:34.963Z,37.73
2017-11-04T15:31:08.414Z,43.50
2017-11-04T15:33:42.115Z,38.63
2017-11-04T15:36:15.715Z,39.07
2017-11-04T15:38:49.274Z,36.53
2017-11-04T15:41:22.722Z,40.73
2017-11-04T15:43:56.486Z,40.13
2017-11-04T15:46:30.014Z,36.87
2017-11-04T15:49:04.033Z,45.57
2017-11-04T15:51:37.725Z,37.07
2017-11-04T15:54:11.337Z,41.37
2017-11-04T15:56:44.930Z,51.30
2017-11-04T15:59:18.543Z,53.23
2017-11-04T16:01:52.344Z,48.10
2017-11-04T16:04:26.142Z,45.27
2017-11-04T16:06:59.743Z,43.07
2017-11-04T16:09:33.351Z,42.60
2017-11-04T16:12:07.154Z,47.40
2017-11-04T16:14:40.955Z,38.67
2017-11-04T16:17:14.662Z,43.90
2017-11-04T16:19:48.419Z,46.30
2017-11-04T16:22:22.054Z,39.73
2017-11-04T16:24:55.871Z,41.70
2017-11-04T16:27:29.411Z,47.07
2017-11-04T16:30:03.186Z,42.37
2017-11-04T16:32:37.192Z,35.73
2017-11-04T16:35:10.887Z,39.23
2017-11-04T16:37:44.548Z,38.27
2017-11-04T16:40:18.197Z,37.10
2017-11-04T16:42:51.998Z,39.70
2017-11-04T16:45:26.519Z,45.37
2017-11-04T16:48:00.329Z,41.93
2017-11-04T16:50:34.835Z,30.37
2017-11-04T16:53:08.514Z,35.57
2017-11-04T16:55:43.059Z,36.47
2017-11-04T16:58:16.878Z,33.90
2017-11-04T17:00:50.442Z,40.30
2017-11-04T17:03:24.081Z,31.13
2017-11-04T17:05:57.782Z,33.17
2017-11-04T17:08:31.367Z,26.30
2017-11-04T17:11:04.992Z,29.67
2017-11-04T17:13:38.686Z,33.97
2017-11-04T17:16:12.983Z,30.53
2017-11-04T17:18:46.475Z,28.70
2017-11-04T17:21:20.317Z,30.67
2017-11-04T17:23:53.911Z,33.30
2017-11-04T17:26:27.810Z,30.30
2017-11-04T17:29:01.615Z,30.73
2017-11-04T17:31:35.343Z,30.80
2017-11-04T17:34:09.122Z,31.37
2017-11-04T17:36:43.561Z,26.50
2017-11-04T17:39:17.843Z,23.07
2017-11-04T17:41:52.290Z,26.20
2017-11-04T17:44:25.762Z,26.10
2017-11-04T17:46:59.390Z,31.47
2017-11-04T17:49:33.509Z,26.33
2017-11-04T17:52:07.110Z,26.70
2017-11-04T17:54:40.887Z,32.80
2017-11-04T17:57:14.462Z,31.47
2017-11-04T17:59:48.015Z,29.23
2017-11-04T18:02:21.716Z,33.03
2017-11-04T18:04:55.295Z,33.13
2017-11-04T18:07:28.920Z,37.00
2017-11-04T18:10:02.525Z,32.10
2017-11-04T18:12:36.088Z,32.20
2017-11-04T18:15:09.708Z,25.60
2017-11-04T18:17:43.347Z,27.40
2017-11-04T18:20:16.894Z,29.47
2017-11-04T18:22:50.627Z,27.53
2017-11-04T18:25:24.194Z,30.03
2017-11-04T18:27:58.289Z,29.10
2017-11-04T18:30:32.044Z,30.37
2017-11-04T18:33:05.490Z,25.53
2017-11-04T18:35:39.142Z,25.80
2017-11-04T18:38:12.744Z,22.63
2017-11-04T18:40:47.054Z,24.07
2017-11-04T18:43:21.442Z,24.40
2017-11-04T18:45:55.174Z,23.83
2017-11-04T18:48:28.777Z,27.57
2017-11-04T18:51:02.383Z,30.93
2017-11-04T18:53:36.703Z,29.60
2017-11-04T18:56:10.304Z,23.83
2017-11-04T18:58:43.759Z,25.70
2017-11-04T19:01:17.546Z,22.90
2017-11-04T19:03:51.406Z,23.70
2017-11-04T19:06:24.913Z,24.50
2017-11-04T19:08:58.919Z,26.27
2017-11-04T19:11:32.506Z,29.60
2017-11-04T19:14:06.119Z,24.17
2017-11-04T19:16:39.690Z,24.93
2017-11-04T19:19:14.139Z,27.63
2017-11-04T19:21:47.855Z,27.30
2017-11-04T19:24:21.535Z,24.00
2017-11-04T19:26:55.251Z,25.23
2017-11-04T19:29:28.814Z,23.27
2017-11-04T19:32:02.410Z,30.93
2017-11-04T19:34:36.050Z,19.93
2017-11-04T19:37:09.527Z,21.60
2017-11-04T19:39:43.150Z,25.70
2017-11-04T19:42:16.751Z,20.53
2017-11-04T19:44:50.256Z,21.30
2017-11-04T19:47:24.667Z,22.97
2017-11-04T19:49:58.275Z,18.97
2017-11-04T19:52:31.970Z,24.70
2017-11-04T19:55:06.371Z,22.93
2017-11-04T19:57:40.791Z,29.13
2017-11-04T20:00:15.301Z,26.70
2017-11-04T20:02:49.036Z,26.40
2017-11-04T20:05:22.749Z,23.93
2017-11-04T20:07:56.343Z,25.57
2017-11-04T20:10:30.027Z,29.27
2017-11-04T20:13:03.747Z,34.70
2017-11-04T20:15:38.763Z,24.40
2017-11-04T20:18:12.800Z,22.90
2017-11-04T20:20:46.607Z,31.87
2017-11-04T20:23:20.624Z,28.40
2017-11-04T20:25:54.171Z,23.97
2017-11-04T20:28:27.895Z,24.70
2017-11-04T20:31:01.600Z,31.57
2017-11-04T20:33:35.224Z,24.97
2017-11-04T20:36:08.817Z,26.87
2017-11-04T20:38:42.433Z,22.53
2017-11-04T20:41:16.128Z,20.30
2017-11-04T20:43:49.723Z,24.97
2017-11-04T20:46:23.222Z,23.17
2017-11-04T20:48:56.790Z,20.80
2017-11-04T20:51:30.574Z,22.23
2017-11-04T20:54:04.138Z,27.90
2017-11-04T20:56:38.443Z,29.97
2017-11-04T20:59:12.255Z,24.97
2017-11-04T21:01:46.055Z,23.33
2017-11-04T21:04:19.672Z,27.17
2017-11-04T21:06:53.323Z,23.93
2017-11-04T21:09:26.964Z,22.60
2017-11-04T21:12:01.274Z,19.80
2017-11-04T21:14:34.856Z,26.93
2017-11-04T21:17:08.434Z,22.90
2017-11-04T21:19:41.975Z,19.67
2017-11-04T21:22:16.358Z,23.03
2017-11-04T21:24:50.004Z,29.83
2017-11-04T21:27:23.503Z,20.93
2017-11-04T21:29:57.070Z,24.43
2017-11-04T21:32:31.618Z,22.53
2017-11-04T21:35:05.179Z,22.37
2017-11-04T21:37:38.870Z,20.10
2017-11-04T21:40:13.858Z,21.23
2017-11-04T21:42:47.667Z,20.37
2017-11-04T21:45:21.186Z,23.10
2017-11-04T21:47:54.803Z,23.80
2017-11-04T21:50:28.372Z,38.60
2017-11-04T21:53:01.935Z,35.10
2017-11-04T21:55:35.766Z,34.57
2017-11-04T21:58:09.528Z,21.10
2017-11-04T22:00:43.384Z,20.90
2017-11-04T22:03:16.984Z,18.73
2017-11-04T22:05:50.442Z,22.23
2017-11-04T22:08:23.958Z,23.73
2017-11-04T22:10:57.678Z,21.53
2017-11-04T22:13:31.268Z,20.63
2017-11-04T22:16:04.976Z,16.17
2017-11-04T22:18:38.637Z,16.80
2017-11-04T22:21:12.191Z,18.77
2017-11-04T22:23:45.726Z,21.53
2017-11-04T22:26:19.171Z,18.10
2017-11-04T22:28:52.758Z,20.77
2017-11-04T22:31:26.278Z,27.03
2017-11-04T22:33:59.794Z,18.30
2017-11-04T22:36:33.235Z,21.03
2017-11-04T22:39:06.746Z,19.83
2017-11-04T22:41:40.421Z,17.47
2017-11-04T22:44:14.672Z,20.50
2017-11-04T22:46:48.202Z,18.60
2017-11-04T22:49:21.835Z,20.90
2017-11-04T22:51:55.283Z,18.87
2017-11-04T22:54:28.799Z,16.47
2017-11-04T22:57:03.073Z,12.77
2017-11-04T22:59:37.379Z,11.17
2017-11-04T23:02:11.019Z,15.60
2017-11-04T23:04:45.322Z,11.43
2017-11-04T23:07:18.856Z,13.07
2017-11-04T23:09:52.435Z,11.70
2017-11-04T23:12:25.958Z,12.80
2017-11-04T23:14:59.598Z,11.10
2017-11-04T23:17:33.038Z,19.57
2017-11-04T23:20:07.315Z,10.07
2017-11-04T23:22:40.846Z,10.10
2017-11-04T23:25:14.375Z,7.30
2017-11-04T23:27:48.646Z,9.93
2017-11-04T23:30:22.855Z,12.10
2017-11-04T23:32:57.175Z,10.80
2017-11-04T23:35:31.382Z,9.73
2017-11-04T23:38:04.958Z,9.40
2017-11-04T23:40:38.398Z,9.50
2017-11-04T23:43:11.926Z,9.33
2017-11-04T23:45:45.390Z,9.17
2017-11-04T23:48:19.595Z,10.43
2017-11-04T23:50:53.815Z,12.80
2017-11-04T23:53:28.027Z,12.80
2017-11-04T23:56:02.247Z,9.10
2017-11-04T23:58:36.580Z,7.43
